createdAt,value
2023-06-02T00:01:29.926Z,2.30
2023-06-02T00:03:56.385Z,2.03
2023-06-02T00:06:22.950Z,2.05
2023-06-02T00:08:49.518Z,2.70
2023-06-02T00:11:16.249Z,2.25
2023-06-02T00:13:43.707Z,2.50
2023-06-02T00:16:11.109Z,2.13
2023-06-02T00:18:38.588Z,2.00
2023-06-02T00:21:06.353Z,2.25
2023-06-02T00:23:34.056Z,2.00
2023-06-02T00:26:01.714Z,2.47
2023-06-02T00:28:29.040Z,2.75
2023-06-02T00:30:56.135Z,2.97
2023-06-02T00:33:23.184Z,2.42
2023-06-02T00:35:50.517Z,2.38
2023-06-02T00:38:18.583Z,2.72
2023-06-02T00:40:45.377Z,2.25
2023-06-02T00:43:11.998Z,2.60
2023-06-02T00:45:38.512Z,4.90
2023-06-02T00:48:05.666Z,8.13
2023-06-02T00:50:33.560Z,8.00
2023-06-02T00:53:01.253Z,3.70
2023-06-02T00:55:31.561Z,2.85
2023-06-02T00:58:01.009Z,3.00
2023-06-02T01:00:28.345Z,2.40
2023-06-02T01:02:59.258Z,2.20
2023-06-02T01:05:26.689Z,2.67
2023-06-02T01:07:59.742Z,4.00
2023-06-02T01:10:27.364Z,2.67
2023-06-02T01:12:55.379Z,3.00
2023-06-02T01:15:22.192Z,6.10
2023-06-02T01:17:51.863Z,3.00
2023-06-02T01:20:22.678Z,2.60
2023-06-02T01:22:58.393Z,2.63
2023-06-02T01:25:29.290Z,2.97
2023-06-02T01:28:00.209Z,8.93
2023-06-02T01:30:27.705Z,6.40
2023-06-02T01:33:06.517Z,4.10
2023-06-02T01:35:45.429Z,3.42
2023-06-02T01:38:13.846Z,3.60
2023-06-02T01:40:41.413Z,3.72
2023-06-02T01:43:09.494Z,3.90
2023-06-02T01:45:38.152Z,3.38
2023-06-02T01:48:06.743Z,3.42
2023-06-02T01:50:34.621Z,3.88
2023-06-02T01:53:01.856Z,4.70
2023-06-02T01:55:28.527Z,4.30
2023-06-02T01:57:56.876Z,4.03
2023-06-02T02:00:23.981Z,3.40
2023-06-02T02:02:51.745Z,3.10
2023-06-02T02:05:18.580Z,3.03
2023-06-02T02:07:45.334Z,3.58
2023-06-02T02:10:12.305Z,3.50
2023-06-02T02:12:42.042Z,3.42
2023-06-02T02:15:10.540Z,3.47
2023-06-02T02:17:43.708Z,4.10
2023-06-02T02:20:11.723Z,3.78
2023-06-02T02:22:38.174Z,3.33
2023-06-02T02:25:05.021Z,3.60
2023-06-02T02:27:32.094Z,3.35
2023-06-02T02:29:58.602Z,3.08
2023-06-02T02:32:25.633Z,2.90
2023-06-02T02:34:52.110Z,3.15
2023-06-02T02:37:25.225Z,3.17
2023-06-02T02:40:00.407Z,3.42
2023-06-02T02:42:26.909Z,3.58
2023-06-02T02:44:53.474Z,3.83
2023-06-02T02:47:20.050Z,3.30
2023-06-02T02:49:47.449Z,3.70
2023-06-02T02:52:14.085Z,3.60
2023-06-02T02:54:40.851Z,3.55
2023-06-02T02:57:08.657Z,3.50
2023-06-02T02:59:36.656Z,3.58
2023-06-02T03:02:07.130Z,3.42
2023-06-02T03:04:35.463Z,3.53
2023-06-02T03:07:03.663Z,3.40
2023-06-02T03:09:30.143Z,3.20
2023-06-02T03:11:59.151Z,3.47
2023-06-02T03:14:29.070Z,3.55
2023-06-02T03:17:00.741Z,3.40
2023-06-02T03:19:27.743Z,2.88
2023-06-02T03:21:56.829Z,3.47
2023-06-02T03:24:25.252Z,3.38
2023-06-02T03:26:53.953Z,3.55
2023-06-02T03:29:20.894Z,3.47
2023-06-02T03:31:52.968Z,3.53
2023-06-02T03:34:21.607Z,3.35
2023-06-02T03:36:49.743Z,3.38
2023-06-02T03:39:16.559Z,3.50
2023-06-02T03:41:44.557Z,3.30
2023-06-02T03:44:11.271Z,3.60
2023-06-02T03:46:37.909Z,3.78
2023-06-02T03:49:06.058Z,3.50
2023-06-02T03:51:32.580Z,3.30
2023-06-02T03:54:00.837Z,3.65
2023-06-02T03:56:28.109Z,3.40
2023-06-02T03:58:54.809Z,3.60
2023-06-02T04:01:23.088Z,3.80
2023-06-02T04:03:51.408Z,3.63
2023-06-02T04:06:18.370Z,3.20
2023-06-02T04:08:46.394Z,3.92
2023-06-02T04:11:14.096Z,3.58
2023-06-02T04:13:41.543Z,3.55
2023-06-02T04:16:09.104Z,3.25
2023-06-02T04:18:40.305Z,3.60
2023-06-02T04:21:08.839Z,3.15
2023-06-02T04:23:37.427Z,3.45
2023-06-02T04:26:04.360Z,3.60
2023-06-02T04:28:31.526Z,4.38
2023-06-02T04:31:00.382Z,3.50
2023-06-02T04:33:29.693Z,3.88
2023-06-02T04:35:56.211Z,3.90
2023-06-02T04:38:22.764Z,4.03
2023-06-02T04:40:49.458Z,3.85
2023-06-02T04:43:16.289Z,3.80
2023-06-02T04:45:44.681Z,3.85
2023-06-02T04:48:13.151Z,3.42
2023-06-02T04:50:40.470Z,4.15
2023-06-02T04:53:08.370Z,3.53
2023-06-02T04:55:35.476Z,3.92
2023-06-02T04:58:02.911Z,4.30
2023-06-02T05:00:29.961Z,4.20
2023-06-02T05:02:57.987Z,4.65
2023-06-02T05:05:27.490Z,4.15
2023-06-02T05:07:54.131Z,4.65
2023-06-02T05:10:22.190Z,4.35
2023-06-02T05:12:50.949Z,3.97
2023-06-02T05:15:17.778Z,4.38
2023-06-02T05:17:44.897Z,3.78
2023-06-02T05:20:12.779Z,3.90
2023-06-02T05:22:39.823Z,3.67
2023-06-02T05:25:11.355Z,3.60
2023-06-02T05:27:39.410Z,3.53
2023-06-02T05:30:08.066Z,3.58
2023-06-02T05:32:34.912Z,2.63
2023-06-02T05:35:04.124Z,2.83
2023-06-02T05:37:30.680Z,3.08
2023-06-02T05:39:58.519Z,3.38
2023-06-02T05:42:26.757Z,3.15
2023-06-02T05:44:53.981Z,3.60
2023-06-02T05:47:20.762Z,3.58
2023-06-02T05:49:50.854Z,3.33
2023-06-02T05:52:17.773Z,3.50
2023-06-02T05:54:44.325Z,3.17
2023-06-02T05:57:12.467Z,4.05
2023-06-02T05:59:40.642Z,3.33
2023-06-02T06:02:07.358Z,3.25
2023-06-02T06:04:33.904Z,3.60
2023-06-02T06:07:00.564Z,3.65
2023-06-02T06:09:27.481Z,3.05
2023-06-02T06:11:53.995Z,2.67
2023-06-02T06:14:20.936Z,3.15
2023-06-02T06:16:47.602Z,3.20
2023-06-02T06:19:14.492Z,3.10
2023-06-02T06:21:42.188Z,2.67
2023-06-02T06:24:09.302Z,3.20
2023-06-02T06:26:36.019Z,3.20
2023-06-02T06:29:04.595Z,3.30
2023-06-02T06:31:33.473Z,3.03
2023-06-02T06:34:00.680Z,3.25
2023-06-02T06:36:27.280Z,3.40
2023-06-02T06:38:54.301Z,3.10
2023-06-02T06:41:21.764Z,3.40
2023-06-02T06:43:49.736Z,2.72
2023-06-02T06:46:17.186Z,3.08
2023-06-02T06:48:43.961Z,3.05
2023-06-02T06:51:10.555Z,3.38
2023-06-02T06:53:37.001Z,2.72
2023-06-02T06:56:04.235Z,2.65
2023-06-02T06:58:31.013Z,2.85
2023-06-02T07:00:58.642Z,3.10
2023-06-02T07:03:25.245Z,2.88
2023-06-02T07:05:51.826Z,3.40
2023-06-02T07:08:18.954Z,3.25
2023-06-02T07:10:45.712Z,3.20
2023-06-02T07:13:12.305Z,3.40
2023-06-02T07:15:38.811Z,3.22
2023-06-02T07:18:05.518Z,2.80
2023-06-02T07:20:32.266Z,3.20
2023-06-02T07:22:58.776Z,2.83
2023-06-02T07:25:25.445Z,3.13
2023-06-02T07:27:52.035Z,2.95
2023-06-02T07:30:18.570Z,2.55
2023-06-02T07:32:45.092Z,3.20
2023-06-02T07:35:11.638Z,3.30
2023-06-02T07:37:38.151Z,2.85
2023-06-02T07:40:05.399Z,3.28
2023-06-02T07:42:31.863Z,3.00
2023-06-02T07:44:58.322Z,3.00
2023-06-02T07:47:24.842Z,3.13
2023-06-02T07:49:51.461Z,3.10
2023-06-02T07:52:19.713Z,2.97
2023-06-02T07:54:46.574Z,3.00
2023-06-02T07:57:13.111Z,3.10
2023-06-02T07:59:39.601Z,3.08
2023-06-02T08:02:07.086Z,3.13
2023-06-02T08:04:34.340Z,3.65
2023-06-02T08:07:01.432Z,3.08
2023-06-02T08:09:28.023Z,3.50
2023-06-02T08:11:54.644Z,3.70
2023-06-02T08:14:21.509Z,3.05
2023-06-02T08:16:57.923Z,3.40
2023-06-02T08:19:26.352Z,3.17
2023-06-02T08:21:53.189Z,3.30
2023-06-02T08:24:21.803Z,3.00
2023-06-02T08:26:49.464Z,3.78
2023-06-02T08:29:16.961Z,3.65
2023-06-02T08:31:44.149Z,2.67
2023-06-02T08:34:11.862Z,3.28
2023-06-02T08:36:38.749Z,3.25
2023-06-02T08:39:08.219Z,2.80
2023-06-02T08:41:38.731Z,3.28
2023-06-02T08:44:05.559Z,3.33
2023-06-02T08:46:33.155Z,3.20
2023-06-02T08:49:01.394Z,2.78
2023-06-02T08:51:29.680Z,2.90
2023-06-02T08:53:56.770Z,3.20
2023-06-02T08:56:24.363Z,3.30
2023-06-02T08:58:50.950Z,3.83
2023-06-02T09:01:17.795Z,3.13
2023-06-02T09:03:47.788Z,3.22
2023-06-02T09:06:23.184Z,3.65
2023-06-02T09:08:58.322Z,3.45
2023-06-02T09:11:27.037Z,3.23
2023-06-02T09:13:54.391Z,3.53
2023-06-02T09:16:22.086Z,3.17
2023-06-02T09:18:58.823Z,3.22
2023-06-02T09:21:31.017Z,3.50
2023-06-02T09:24:12.366Z,3.85
2023-06-02T09:26:49.250Z,3.47
2023-06-02T09:29:16.188Z,3.17
2023-06-02T09:31:53.867Z,3.38
2023-06-02T09:34:22.330Z,3.60
2023-06-02T09:36:53.321Z,3.80
2023-06-02T09:39:34.341Z,3.25
2023-06-02T09:42:01.710Z,3.58
2023-06-02T09:44:28.410Z,3.40
2023-06-02T09:46:54.993Z,3.47
2023-06-02T09:49:21.704Z,3.33
2023-06-02T09:51:48.270Z,3.35
2023-06-02T09:54:14.843Z,3.22
2023-06-02T09:56:41.480Z,2.88
2023-06-02T09:59:09.444Z,3.20
2023-06-02T10:01:37.157Z,3.63
2023-06-02T10:04:05.661Z,3.30
2023-06-02T10:06:57.282Z,3.15
2023-06-02T10:10:01.380Z,3.03
2023-06-02T10:12:48.033Z,2.90
2023-06-02T10:15:35.851Z,3.03
2023-06-02T10:18:40.092Z,3.28
2023-06-02T10:21:30.041Z,3.10
2023-06-02T10:24:10.409Z,3.10
2023-06-02T10:26:56.388Z,3.08
2023-06-02T10:29:26.900Z,3.60
2023-06-02T10:31:53.497Z,3.20
2023-06-02T10:34:53.466Z,3.40
2023-06-02T10:37:21.427Z,3.03
2023-06-02T10:39:52.639Z,2.58
2023-06-02T10:42:21.683Z,3.10
2023-06-02T10:44:52.976Z,2.42
2023-06-02T10:47:19.490Z,2.42
2023-06-02T10:50:00.619Z,2.80
2023-06-02T10:52:28.488Z,2.80
2023-06-02T10:55:13.103Z,2.53
2023-06-02T10:57:49.345Z,2.53
2023-06-02T11:00:40.931Z,2.60
2023-06-02T11:03:11.161Z,2.67
2023-06-02T11:05:37.854Z,3.00
2023-06-02T11:08:16.772Z,2.38
2023-06-02T11:10:45.687Z,2.53
2023-06-02T11:13:16.144Z,2.08
2023-06-02T11:15:54.459Z,2.40
2023-06-02T11:18:23.842Z,2.55
2023-06-02T11:20:52.134Z,2.35
2023-06-02T11:23:19.596Z,2.15
2023-06-02T11:25:46.430Z,2.60
2023-06-02T11:28:21.873Z,2.60
2023-06-02T11:30:48.917Z,2.08
2023-06-02T11:33:15.779Z,2.80
2023-06-02T11:35:42.365Z,3.28
2023-06-02T11:38:09.294Z,2.38
2023-06-02T11:40:37.207Z,2.03
2023-06-02T11:43:04.740Z,2.08
2023-06-02T11:45:31.807Z,2.50
2023-06-02T11:48:12.504Z,2.78
2023-06-02T11:50:39.616Z,2.10
2023-06-02T11:53:14.139Z,1.90
2023-06-02T11:55:41.464Z,2.15
2023-06-02T11:58:21.849Z,2.13
2023-06-02T12:00:48.744Z,1.95
2023-06-02T12:03:15.419Z,2.28
2023-06-02T12:05:45.129Z,1.95
2023-06-02T12:08:21.433Z,2.17
2023-06-02T12:10:48.903Z,1.95
2023-06-02T12:13:26.661Z,2.05
2023-06-02T12:15:54.133Z,1.70
2023-06-02T12:18:31.967Z,2.03
2023-06-02T12:20:59.362Z,2.30
2023-06-02T12:23:47.037Z,2.00
2023-06-02T12:26:15.192Z,1.98
2023-06-02T12:28:41.973Z,2.38
2023-06-02T12:31:09.341Z,2.17
2023-06-02T12:33:35.981Z,1.90
2023-06-02T12:36:02.462Z,2.20
2023-06-02T12:38:28.958Z,1.73
2023-06-02T12:40:55.431Z,2.00
2023-06-02T12:43:22.006Z,1.50
2023-06-02T12:45:48.730Z,2.58
2023-06-02T12:48:15.637Z,2.00
2023-06-02T12:50:42.281Z,2.15
2023-06-02T12:53:08.747Z,1.88
2023-06-02T12:55:35.354Z,1.67
2023-06-02T12:58:01.810Z,1.70
2023-06-02T13:00:28.286Z,1.80
2023-06-02T13:02:54.941Z,1.52
2023-06-02T13:05:21.971Z,1.80
2023-06-02T13:07:48.669Z,1.88
2023-06-02T13:10:15.243Z,1.88
2023-06-02T13:12:41.830Z,1.63
2023-06-02T13:15:08.844Z,2.15
2023-06-02T13:17:35.751Z,1.67
2023-06-02T13:20:02.579Z,2.00
2023-06-02T13:22:30.171Z,2.08
2023-06-02T13:24:56.732Z,2.08
2023-06-02T13:27:30.687Z,2.00
2023-06-02T13:30:08.654Z,1.95
2023-06-02T13:32:35.137Z,2.10
2023-06-02T13:35:01.653Z,2.55
2023-06-02T13:37:28.121Z,2.20
2023-06-02T13:39:54.619Z,1.80
2023-06-02T13:42:21.126Z,1.70
2023-06-02T13:44:47.640Z,2.47
2023-06-02T13:47:14.257Z,1.90
2023-06-02T13:49:40.766Z,2.33
2023-06-02T13:52:07.824Z,2.40
2023-06-02T13:54:34.335Z,2.38
2023-06-02T13:57:03.317Z,2.40
2023-06-02T13:59:31.368Z,2.28
2023-06-02T14:01:58.975Z,2.42
2023-06-02T14:04:26.758Z,2.15
2023-06-02T14:06:54.403Z,2.20
2023-06-02T14:09:21.573Z,2.00
2023-06-02T14:11:48.078Z,2.00
2023-06-02T14:14:14.813Z,2.47
2023-06-02T14:16:41.462Z,2.30
2023-06-02T14:19:08.056Z,1.85
2023-06-02T14:21:34.642Z,2.30
2023-06-02T14:24:01.144Z,2.30
2023-06-02T14:26:28.226Z,2.20
2023-06-02T14:28:54.742Z,2.10
2023-06-02T14:31:21.367Z,2.28
2023-06-02T14:33:48.441Z,2.00
2023-06-02T14:36:15.666Z,2.30
2023-06-02T14:38:43.092Z,2.28
2023-06-02T14:41:09.630Z,2.80
2023-06-02T14:43:36.247Z,2.20
2023-06-02T14:46:07.502Z,2.15
2023-06-02T14:48:35.119Z,2.33
2023-06-02T14:51:02.065Z,2.28
2023-06-02T14:53:28.563Z,2.10
2023-06-02T14:55:55.739Z,2.15
2023-06-02T14:58:23.927Z,2.95
2023-06-02T15:00:51.121Z,2.63
2023-06-02T15:03:17.987Z,2.22
2023-06-02T15:05:44.638Z,2.55
2023-06-02T15:08:11.221Z,2.65
2023-06-02T15:10:37.679Z,2.40
2023-06-02T15:13:04.230Z,2.13
2023-06-02T15:15:32.129Z,2.53
2023-06-02T15:17:59.429Z,2.40
2023-06-02T15:20:26.045Z,2.30
2023-06-02T15:22:52.582Z,2.47
2023-06-02T15:25:19.057Z,2.63
2023-06-02T15:27:46.367Z,2.50
2023-06-02T15:30:12.946Z,2.85
2023-06-02T15:32:39.454Z,2.95
2023-06-02T15:35:06.391Z,2.53
2023-06-02T15:37:32.865Z,2.65
2023-06-02T15:39:59.351Z,2.35
2023-06-02T15:42:25.934Z,2.72
2023-06-02T15:44:52.452Z,2.85
2023-06-02T15:47:19.143Z,2.58
2023-06-02T15:49:45.758Z,2.58
2023-06-02T15:52:12.340Z,2.42
2023-06-02T15:54:40.316Z,2.25
2023-06-02T15:57:07.113Z,2.47
2023-06-02T15:59:33.743Z,2.25
2023-06-02T16:02:00.402Z,2.22
2023-06-02T16:04:26.981Z,2.25
2023-06-02T16:06:53.890Z,2.40
2023-06-02T16:09:21.016Z,2.22
2023-06-02T16:11:47.636Z,2.35
2023-06-02T16:14:14.195Z,2.50
2023-06-02T16:16:40.737Z,2.55
2023-06-02T16:19:07.923Z,2.60
2023-06-02T16:21:34.480Z,2.70
2023-06-02T16:24:00.986Z,2.80
2023-06-02T16:26:28.089Z,2.20
2023-06-02T16:28:54.817Z,2.15
2023-06-02T16:31:22.911Z,2.50
2023-06-02T16:33:51.371Z,2.28
2023-06-02T16:36:17.901Z,2.30
2023-06-02T16:38:44.441Z,2.28
2023-06-02T16:41:11.077Z,2.25
2023-06-02T16:43:37.569Z,2.28
2023-06-02T16:46:04.265Z,2.10
2023-06-02T16:48:31.854Z,2.40
2023-06-02T16:50:58.473Z,2.40
2023-06-02T16:53:28.571Z,2.00
2023-06-02T16:55:56.043Z,2.10
2023-06-02T16:58:22.889Z,2.17
2023-06-02T17:00:49.341Z,2.30
2023-06-02T17:03:16.064Z,2.40
2023-06-02T17:05:45.835Z,2.20
2023-06-02T17:08:12.788Z,2.30
2023-06-02T17:10:39.926Z,2.30
2023-06-02T17:13:06.454Z,2.35
2023-06-02T17:15:32.958Z,2.63
2023-06-02T17:17:59.564Z,2.05
2023-06-02T17:20:26.461Z,2.47
2023-06-02T17:22:53.016Z,2.60
2023-06-02T17:25:21.094Z,2.40
2023-06-02T17:27:47.741Z,2.20
2023-06-02T17:30:14.334Z,2.83
2023-06-02T17:32:40.881Z,2.17
2023-06-02T17:35:07.824Z,2.47
2023-06-02T17:37:35.102Z,2.25
2023-06-02T17:40:05.460Z,2.60
2023-06-02T17:42:32.552Z,2.45
2023-06-02T17:45:00.205Z,2.38
2023-06-02T17:47:26.835Z,2.47
2023-06-02T17:49:53.544Z,2.55
2023-06-02T17:52:22.703Z,2.30
2023-06-02T17:54:49.395Z,2.25
2023-06-02T17:57:16.021Z,2.13
2023-06-02T17:59:43.381Z,2.67
2023-06-02T18:02:11.103Z,2.55
2023-06-02T18:04:37.633Z,2.42
2023-06-02T18:07:05.368Z,4.60
2023-06-02T18:09:33.866Z,2.72
2023-06-02T18:12:00.942Z,2.60
2023-06-02T18:14:27.440Z,2.60
2023-06-02T18:16:53.948Z,2.10
2023-06-02T18:19:20.426Z,2.70
2023-06-02T18:21:46.973Z,2.05
2023-06-02T18:24:13.875Z,2.80
2023-06-02T18:26:40.444Z,2.80
2023-06-02T18:29:07.177Z,2.55
2023-06-02T18:31:33.680Z,2.20
2023-06-02T18:34:00.208Z,3.03
2023-06-02T18:36:26.690Z,2.50
2023-06-02T18:38:53.171Z,2.63
2023-06-02T18:41:19.690Z,2.42
2023-06-02T18:43:46.166Z,2.50
2023-06-02T18:46:12.662Z,2.65
2023-06-02T18:48:39.229Z,2.90
2023-06-02T18:51:05.927Z,2.47
2023-06-02T18:53:32.521Z,2.30
2023-06-02T18:55:58.994Z,2.63
2023-06-02T18:58:25.685Z,2.67
2023-06-02T19:00:52.729Z,2.50
2023-06-02T19:03:19.903Z,2.53
2023-06-02T19:05:46.687Z,2.45
2023-06-02T19:08:13.269Z,2.90
2023-06-02T19:10:39.838Z,2.78
2023-06-02T19:13:06.317Z,2.58
2023-06-02T19:15:32.906Z,2.50
2023-06-02T19:17:59.594Z,2.50
2023-06-02T19:20:26.165Z,2.70
2023-06-02T19:22:52.713Z,2.75
2023-06-02T19:25:19.727Z,2.70
2023-06-02T19:27:46.513Z,2.60
2023-06-02T19:30:13.733Z,2.38
2023-06-02T19:32:45.634Z,2.72
2023-06-02T19:35:12.222Z,2.47
2023-06-02T19:37:39.965Z,2.63
2023-06-02T19:40:11.364Z,2.47
2023-06-02T19:42:38.643Z,2.90
2023-06-02T19:45:05.868Z,2.75
2023-06-02T19:47:32.601Z,2.65
2023-06-02T19:49:59.152Z,2.50
2023-06-02T19:52:25.760Z,2.85
2023-06-02T19:54:52.285Z,2.60
2023-06-02T19:57:19.096Z,2.53
2023-06-02T19:59:45.773Z,2.78
2023-06-02T20:02:12.481Z,2.40
2023-06-02T20:04:39.083Z,2.78
2023-06-02T20:07:05.898Z,2.80
2023-06-02T20:09:33.165Z,2.80
2023-06-02T20:11:59.870Z,2.75
2023-06-02T20:14:29.069Z,2.90
2023-06-02T20:16:56.008Z,2.25
2023-06-02T20:19:22.678Z,2.33
2023-06-02T20:21:49.227Z,2.65
2023-06-02T20:24:15.920Z,3.00
2023-06-02T20:26:42.650Z,2.67
2023-06-02T20:29:09.361Z,2.58
2023-06-02T20:31:36.182Z,2.65
2023-06-02T20:34:02.998Z,3.20
2023-06-02T20:36:29.697Z,2.75
2023-06-02T20:38:56.444Z,2.70
2023-06-02T20:41:22.959Z,2.47
2023-06-02T20:43:49.574Z,2.67
2023-06-02T20:46:16.657Z,2.50
2023-06-02T20:48:43.243Z,2.60
2023-06-02T20:51:09.929Z,2.85
2023-06-02T20:53:36.518Z,2.70
2023-06-02T20:56:03.376Z,2.88
2023-06-02T20:58:29.892Z,3.05
2023-06-02T21:00:56.512Z,2.75
2023-06-02T21:03:23.206Z,2.85
2023-06-02T21:05:49.866Z,2.50
2023-06-02T21:08:16.374Z,3.20
2023-06-02T21:10:43.026Z,3.03
2023-06-02T21:13:09.495Z,3.22
2023-06-02T21:15:36.519Z,2.85
2023-06-02T21:18:03.264Z,2.83
2023-06-02T21:20:29.868Z,2.92
2023-06-02T21:22:56.366Z,2.53
2023-06-02T21:25:22.856Z,2.60
2023-06-02T21:27:49.433Z,3.70
2023-06-02T21:30:16.001Z,2.95
2023-06-02T21:32:42.800Z,2.70
2023-06-02T21:35:09.473Z,3.00
2023-06-02T21:37:36.182Z,2.75
2023-06-02T21:40:03.162Z,2.80
2023-06-02T21:42:29.728Z,3.08
2023-06-02T21:44:58.571Z,3.22
2023-06-02T21:47:25.304Z,2.90
2023-06-02T21:49:51.906Z,2.95
2023-06-02T21:52:18.401Z,2.88
2023-06-02T21:54:44.964Z,2.58
2023-06-02T21:57:12.174Z,2.50
2023-06-02T21:59:38.679Z,3.05
2023-06-02T22:02:05.661Z,3.10
2023-06-02T22:04:32.287Z,2.63
2023-06-02T22:06:58.816Z,3.35
2023-06-02T22:09:25.525Z,3.08
2023-06-02T22:11:52.096Z,2.83
2023-06-02T22:14:18.614Z,3.15
2023-06-02T22:16:45.148Z,3.08
2023-06-02T22:19:11.679Z,2.60
2023-06-02T22:24:18.233Z,3.08
2023-06-02T22:26:52.685Z,3.50
2023-06-02T22:29:19.268Z,3.05
2023-06-02T22:31:45.802Z,2.53
2023-06-02T22:34:12.681Z,3.00
2023-06-02T22:36:40.126Z,3.15
2023-06-02T22:39:07.704Z,2.55
2023-06-02T22:41:34.274Z,3.72
2023-06-02T22:44:01.084Z,3.20
2023-06-02T22:46:27.692Z,3.20
2023-06-02T22:48:54.315Z,2.72
2023-06-02T22:51:20.893Z,3.25
2023-06-02T22:53:47.400Z,3.40
2023-06-02T22:56:14.027Z,3.88
2023-06-02T22:58:40.657Z,2.97
2023-06-02T23:01:07.470Z,3.40
2023-06-02T23:03:34.181Z,3.13
2023-06-02T23:06:00.685Z,2.92
2023-06-02T23:08:27.653Z,2.97
2023-06-02T23:10:54.170Z,2.70
2023-06-02T23:13:20.659Z,2.85
2023-06-02T23:15:47.164Z,3.00
2023-06-02T23:18:13.968Z,3.20
2023-06-02T23:20:40.726Z,3.08
2023-06-02T23:23:07.221Z,3.15
2023-06-02T23:25:33.704Z,3.40
2023-06-02T23:28:00.373Z,3.17
2023-06-02T23:30:26.886Z,2.90
2023-06-02T23:32:53.760Z,3.38
2023-06-02T23:35:20.350Z,3.40
2023-06-02T23:37:46.856Z,3.45
2023-06-02T23:40:14.024Z,3.03
2023-06-02T23:42:42.504Z,3.10
2023-06-02T23:45:09.730Z,3.60
2023-06-02T23:47:36.299Z,3.38
2023-06-02T23:50:03.058Z,3.25
2023-06-02T23:52:29.777Z,3.28
2023-06-02T23:54:56.239Z,3.83
2023-06-02T23:57:22.740Z,3.17
2023-06-02T23:59:49.297Z,2.97
